sensor_id;sensor_type;location;lat;lon;timestamp;pressure;altitude;pressure_sealevel;temperature;humidity
58644;BME280;44411;49.994;8.660;2022-11-23T00:02:23;98643.72;;;8.99;72.40
58644;BME280;44411;49.994;8.660;2022-11-23T00:04:49;98644.69;;;9.03;72.74
58644;BME280;44411;49.994;8.660;2022-11-23T00:07:14;98638.75;;;9.01;72.33
58644;BME280;44411;49.994;8.660;2022-11-23T00:09:39;98651.38;;;8.88;72.92
58644;BME280;44411;49.994;8.660;2022-11-23T00:12:05;98652.03;;;8.94;72.36
58644;BME280;44411;49.994;8.660;2022-11-23T00:14:30;98647.03;;;8.87;72.02
58644;BME280;44411;49.994;8.660;2022-11-23T00:16:56;98643.78;;;8.76;72.49
58644;BME280;44411;49.994;8.660;2022-11-23T00:19:21;98652.44;;;8.70;72.65
58644;BME280;44411;49.994;8.660;2022-11-23T00:21:46;98649.34;;;8.62;72.80
58644;BME280;44411;49.994;8.660;2022-11-23T00:24:12;98652.06;;;8.62;73.11
58644;BME280;44411;49.994;8.660;2022-11-23T00:26:37;98663.91;;;8.67;72.72
58644;BME280;44411;49.994;8.660;2022-11-23T00:29:02;98657.69;;;8.66;72.68
58644;BME280;44411;49.994;8.660;2022-11-23T00:31:28;98653.09;;;8.75;72.96
58644;BME280;44411;49.994;8.660;2022-11-23T00:33:54;98645.38;;;8.69;72.86
58644;BME280;44411;49.994;8.660;2022-11-23T00:36:21;98661.78;;;8.55;73.38
58644;BME280;44411;49.994;8.660;2022-11-23T00:38:47;98646.06;;;8.83;73.06
58644;BME280;44411;49.994;8.660;2022-11-23T00:41:15;98653.94;;;9.02;72.36
58644;BME280;44411;49.994;8.660;2022-11-23T00:43:41;98655.22;;;8.96;72.18
58644;BME280;44411;49.994;8.660;2022-11-23T00:46:08;98654.78;;;9.02;72.37
58644;BME280;44411;49.994;8.660;2022-11-23T00:48:34;98654.88;;;8.89;72.73
58644;BME280;44411;49.994;8.660;2022-11-23T00:51:04;98661.28;;;8.93;72.74
58644;BME280;44411;49.994;8.660;2022-11-23T00:53:30;98659.34;;;8.84;73.07
58644;BME280;44411;49.994;8.660;2022-11-23T00:55:56;98664.50;;;8.95;72.67
58644;BME280;44411;49.994;8.660;2022-11-23T00:58:22;98660.66;;;8.96;72.73
58644;BME280;44411;49.994;8.660;2022-11-23T06:00:47;98684.41;;;9.04;72.92
58644;BME280;44411;49.994;8.660;2022-11-23T06:03:12;98702.44;;;9.00;73.22
58644;BME280;44411;49.994;8.660;2022-11-23T06:05:38;98687.78;;;8.70;73.64
58644;BME280;44411;49.994;8.660;2022-11-23T06:08:04;98705.72;;;9.19;72.86
58644;BME280;44411;49.994;8.660;2022-11-23T06:10:29;98703.44;;;9.04;72.98
58644;BME280;44411;49.994;8.660;2022-11-23T06:13:01;98709.72;;;9.13;73.08
58644;BME280;44411;49.994;8.660;2022-11-23T06:15:26;98710.06;;;9.20;72.70
58644;BME280;44411;49.994;8.660;2022-11-23T06:17:51;98705.47;;;8.98;73.39
58644;BME280;44411;49.994;8.660;2022-11-23T06:20:17;98709.59;;;8.87;73.63
58644;BME280;44411;49.994;8.660;2022-11-23T06:22:42;98704.84;;;9.01;72.61
58644;BME280;44411;49.994;8.660;2022-11-23T06:25:08;98711.59;;;9.04;72.91
58644;BME280;44411;49.994;8.660;2022-11-23T06:27:33;98712.03;;;8.97;73.33
58644;BME280;44411;49.994;8.660;2022-11-23T06:29:59;98710.84;;;9.21;72.75
58644;BME280;44411;49.994;8.660;2022-11-23T06:32:24;98720.41;;;9.10;72.65
58644;BME280;44411;49.994;8.660;2022-11-23T06:34:49;98710.59;;;9.00;73.12
58644;BME280;44411;49.994;8.660;2022-11-23T06:37:15;98708.53;;;9.06;72.77
58644;BME280;44411;49.994;8.660;2022-11-23T06:39:40;98707.78;;;9.14;72.83
58644;BME280;44411;49.994;8.660;2022-11-23T06:42:06;98701.97;;;8.98;73.16
58644;BME280;44411;49.994;8.660;2022-11-23T06:44:31;98708.06;;;9.03;73.04
58644;BME280;44411;49.994;8.660;2022-11-23T06:46:56;98726.38;;;9.20;72.86
58644;BME280;44411;49.994;8.660;2022-11-23T06:49:22;98717.66;;;9.01;72.68
58644;BME280;44411;49.994;8.660;2022-11-23T06:51:47;98721.84;;;9.07;72.40
58644;BME280;44411;49.994;8.660;2022-11-23T06:54:12;98714.31;;;9.04;72.76
58644;BME280;44411;49.994;8.660;2022-11-23T06:56:38;98711.59;;;9.13;72.78
58644;BME280;44411;49.994;8.660;2022-11-23T06:59:03;98722.06;;;9.28;72.33
58644;BME280;44411;49.994;8.660;2022-11-23T07:01:29;98731.22;;;9.41;71.38
58644;BME280;44411;49.994;8.660;2022-11-23T07:03:54;98728.31;;;9.29;71.71
58644;BME280;44411;49.994;8.660;2022-11-23T07:06:20;98732.31;;;9.31;71.69
58644;BME280;44411;49.994;8.660;2022-11-23T07:08:45;98735.72;;;9.37;71.67
58644;BME280;44411;49.994;8.660;2022-11-23T07:11:11;98730.81;;;9.16;72.12
58644;BME280;44411;49.994;8.660;2022-11-23T07:13:37;98738.38;;;9.19;71.95
58644;BME280;44411;49.994;8.660;2022-11-23T07:16:03;98732.59;;;9.12;72.53
58644;BME280;44411;49.994;8.660;2022-11-23T07:18:28;98727.22;;;8.90;73.23
58644;BME280;44411;49.994;8.660;2022-11-23T07:20:56;98734.94;;;9.05;72.47
58644;BME280;44411;49.994;8.660;2022-11-23T07:23:22;98733.97;;;9.01;72.63
58644;BME280;44411;49.994;8.660;2022-11-23T07:25:47;98739.91;;;9.03;73.24
58644;BME280;44411;49.994;8.660;2022-11-23T07:28:15;98735.22;;;8.95;72.96
58644;BME280;44411;49.994;8.660;2022-11-23T07:30:41;98731.44;;;9.05;72.79
58644;BME280;44411;49.994;8.660;2022-11-23T07:33:08;98730.47;;;9.09;72.73
58644;BME280;44411;49.994;8.660;2022-11-23T07:35:34;98735.13;;;9.09;72.78
58644;BME280;44411;49.994;8.660;2022-11-23T07:38:00;98730.50;;;9.18;72.43
58644;BME280;44411;49.994;8.660;2022-11-23T07:40:26;98741.44;;;9.27;71.65
58644;BME280;44411;49.994;8.660;2022-11-23T07:42:52;98737.75;;;9.31;72.26
58644;BME280;44411;49.994;8.660;2022-11-23T07:45:22;98751.59;;;9.52;71.98
58644;BME280;44411;49.994;8.660;2022-11-23T07:48:03;98759.09;;;9.38;71.74
58644;BME280;44411;49.994;8.660;2022-11-23T07:50:29;98754.22;;;9.17;71.91
58644;BME280;44411;49.994;8.660;2022-11-23T07:52:55;98762.59;;;9.30;72.21
58644;BME280;44411;49.994;8.660;2022-11-23T07:55:20;98752.59;;;9.16;72.28
58644;BME280;44411;49.994;8.660;2022-11-23T07:57:45;98757.81;;;9.35;71.37
58644;BME280;44411;49.994;8.660;2022-11-23T08:00:11;98763.56;;;9.34;71.58
58644;BME280;44411;49.994;8.660;2022-11-23T08:02:37;98757.88;;;9.61;70.75
58644;BME280;44411;49.994;8.660;2022-11-23T08:05:02;98756.91;;;9.57;71.29
58644;BME280;44411;49.994;8.660;2022-11-23T08:07:28;98766.00;;;9.44;71.01
58644;BME280;44411;49.994;8.660;2022-11-23T08:09:53;98768.75;;;9.61;70.58
58644;BME280;44411;49.994;8.660;2022-11-23T08:12:19;98770.91;;;9.25;71.49
58644;BME280;44411;49.994;8.660;2022-11-23T08:14:44;98760.97;;;9.29;71.41
58644;BME280;44411;49.994;8.660;2022-11-23T08:17:09;98760.72;;;9.56;70.98
58644;BME280;44411;49.994;8.660;2022-11-23T08:19:35;98759.16;;;9.73;70.00
58644;BME280;44411;49.994;8.660;2022-11-23T08:22:00;98757.56;;;9.72;70.16
58644;BME280;44411;49.994;8.660;2022-11-23T08:24:26;98768.06;;;9.47;70.89
58644;BME280;44411;49.994;8.660;2022-11-23T08:26:51;98760.72;;;9.56;70.48
58644;BME280;44411;49.994;8.660;2022-11-23T08:29:16;98768.28;;;9.59;70.04
58644;BME280;44411;49.994;8.660;2022-11-23T08:31:42;98771.41;;;9.35;70.57
58644;BME280;44411;49.994;8.660;2022-11-23T08:34:07;98759.03;;;9.20;71.05
58644;BME280;44411;49.994;8.660;2022-11-23T08:36:33;98770.09;;;9.33;70.41
58644;BME280;44411;49.994;8.660;2022-11-23T08:38:58;98760.28;;;9.14;70.86
58644;BME280;44411;49.994;8.660;2022-11-23T08:41:23;98772.66;;;9.29;70.66
58644;BME280;44411;49.994;8.660;2022-11-23T08:43:50;98775.41;;;9.38;70.17
58644;BME280;44411;49.994;8.660;2022-11-23T08:46:16;98766.59;;;9.32;70.77
58644;BME280;44411;49.994;8.660;2022-11-23T08:48:41;98766.38;;;9.20;71.25
58644;BME280;44411;49.994;8.660;2022-11-23T08:51:07;98781.25;;;9.63;70.11
58644;BME280;44411;49.994;8.660;2022-11-23T08:53:32;98775.47;;;9.55;70.26
58644;BME280;44411;49.994;8.660;2022-11-23T08:56:05;98768.53;;;9.32;69.97
58644;BME280;44411;49.994;8.660;2022-11-23T08:58:32;98767.09;;;9.43;70.01
58644;BME280;44411;49.994;8.660;2022-11-23T09:00:58;98777.84;;;9.48;70.04
58644;BME280;44411;49.994;8.660;2022-11-23T09:03:23;98771.50;;;9.70;69.56
58644;BME280;44411;49.994;8.660;2022-11-23T09:05:48;98784.19;;;9.92;69.48
58644;BME280;44411;49.994;8.660;2022-11-23T09:08:15;98773.56;;;9.65;69.88
58644;BME280;44411;49.994;8.660;2022-11-23T09:10:41;98780.28;;;9.58;69.98
58644;BME280;44411;49.994;8.660;2022-11-23T09:13:06;98774.66;;;9.55;69.81
58644;BME280;44411;49.994;8.660;2022-11-23T09:15:32;98775.16;;;9.66;69.61
58644;BME280;44411;49.994;8.660;2022-11-23T09:17:57;98784.81;;;9.72;69.07
58644;BME280;44411;49.994;8.660;2022-11-23T09:20:23;98777.91;;;9.74;68.92
58644;BME280;44411;49.994;8.660;2022-11-23T09:22:52;98787.69;;;9.75;68.46
58644;BME280;44411;49.994;8.660;2022-11-23T09:25:18;98780.84;;;9.95;68.54
58644;BME280;44411;49.994;8.660;2022-11-23T09:27:44;98776.19;;;10.05;68.14
58644;BME280;44411;49.994;8.660;2022-11-23T09:30:10;98770.91;;;10.17;67.90
58644;BME280;44411;49.994;8.660;2022-11-23T09:32:35;98764.00;;;10.02;67.79
58644;BME280;44411;49.994;8.660;2022-11-23T09:35:01;98773.16;;;10.06;67.60
58644;BME280;44411;49.994;8.660;2022-11-23T09:37:26;98775.56;;;10.16;67.79
58644;BME280;44411;49.994;8.660;2022-11-23T09:39:52;98777.84;;;10.41;67.32
58644;BME280;44411;49.994;8.660;2022-11-23T09:50:45;98775.06;;;10.67;64.98
58644;BME280;44411;49.994;8.660;2022-11-23T09:53:15;98770.00;;;10.95;65.77
58644;BME280;44411;49.994;8.660;2022-11-23T09:55:48;98771.38;;;10.71;64.92
58644;BME280;44411;49.994;8.660;2022-11-23T09:58:17;98773.91;;;10.76;64.50
58644;BME280;44411;49.994;8.660;2022-11-23T10:00:59;98770.00;;;10.95;64.31
58644;BME280;44411;49.994;8.660;2022-11-23T10:03:27;98763.84;;;10.68;64.30
58644;BME280;44411;49.994;8.660;2022-11-23T10:06:01;98770.22;;;10.90;63.90
58644;BME280;44411;49.994;8.660;2022-11-23T10:08:36;98769.09;;;11.29;63.26
58644;BME280;44411;49.994;8.660;2022-11-23T10:17:02;98771.28;;;11.45;63.28
58644;BME280;44411;49.994;8.660;2022-11-23T10:22:37;98770.25;;;11.58;62.62
58644;BME280;44411;49.994;8.660;2022-11-23T10:25:15;98757.28;;;11.76;60.74
58644;BME280;44411;49.994;8.660;2022-11-23T10:27:42;98756.66;;;11.70;61.29
58644;BME280;44411;49.994;8.660;2022-11-23T10:30:13;98762.09;;;11.79;61.75
58644;BME280;44411;49.994;8.660;2022-11-23T10:32:55;98762.97;;;11.62;60.96
58644;BME280;44411;49.994;8.660;2022-11-23T10:35:33;98754.41;;;11.72;61.59
58644;BME280;44411;49.994;8.660;2022-11-23T10:38:19;98762.19;;;12.34;60.71
58644;BME280;44411;49.994;8.660;2022-11-23T10:43:25;98758.00;;;11.94;59.22
58644;BME280;44411;49.994;8.660;2022-11-23T10:45:51;98761.41;;;12.12;60.52
58644;BME280;44411;49.994;8.660;2022-11-23T10:48:35;98754.56;;;12.39;58.78
58644;BME280;44411;49.994;8.660;2022-11-23T10:51:14;98752.88;;;12.47;57.76
58644;BME280;44411;49.994;8.660;2022-11-23T10:53:41;98744.31;;;12.82;58.94
58644;BME280;44411;49.994;8.660;2022-11-23T10:56:11;98742.03;;;12.84;58.47
58644;BME280;44411;49.994;8.660;2022-11-23T10:58:45;98728.22;;;12.68;57.66
58644;BME280;44411;49.994;8.660;2022-11-23T11:01:17;98714.06;;;12.66;57.43
58644;BME280;44411;49.994;8.660;2022-11-23T11:03:43;98719.91;;;12.77;58.33
58644;BME280;44411;49.994;8.660;2022-11-23T11:06:09;98735.81;;;12.96;57.51
58644;BME280;44411;49.994;8.660;2022-11-23T11:09:02;98724.25;;;12.78;56.50
58644;BME280;44411;49.994;8.660;2022-11-23T11:11:30;98723.34;;;12.86;57.29
58644;BME280;44411;49.994;8.660;2022-11-23T11:14:14;98722.53;;;12.85;57.33
58644;BME280;44411;49.994;8.660;2022-11-23T11:16:51;98710.59;;;13.15;56.92
58644;BME280;44411;49.994;8.660;2022-11-23T11:21:57;98708.56;;;13.36;56.07
58644;BME280;44411;49.994;8.660;2022-11-23T11:24:37;98705.94;;;13.40;54.06
58644;BME280;44411;49.994;8.660;2022-11-23T11:27:11;98704.66;;;13.25;55.22
58644;BME280;44411;49.994;8.660;2022-11-23T11:29:45;98700.47;;;13.40;55.04
58644;BME280;44411;49.994;8.660;2022-11-23T11:34:52;98701.34;;;13.56;52.86
58644;BME280;44411;49.994;8.660;2022-11-23T11:37:42;98696.16;;;13.39;53.00
58644;BME280;44411;49.994;8.660;2022-11-23T11:43:31;98679.03;;;14.67;54.27
58644;BME280;44411;49.994;8.660;2022-11-23T11:46:03;98683.19;;;14.33;51.17
58644;BME280;44411;49.994;8.660;2022-11-23T11:48:33;98677.88;;;13.83;51.25
58644;BME280;44411;49.994;8.660;2022-11-23T11:51:31;98671.72;;;14.43;52.17
58644;BME280;44411;49.994;8.660;2022-11-23T11:54:09;98673.19;;;13.84;50.29
58644;BME280;44411;49.994;8.660;2022-11-23T11:56:43;98670.72;;;13.79;50.12
58644;BME280;44411;49.994;8.660;2022-11-23T11:59:16;98668.75;;;14.64;50.21
58644;BME280;44411;49.994;8.660;2022-11-23T12:01:50;98654.84;;;14.00;49.07
58644;BME280;44411;49.994;8.660;2022-11-23T12:04:38;98658.75;;;13.99;49.74
58644;BME280;44411;49.994;8.660;2022-11-23T12:09:51;98650.88;;;13.98;50.67
58644;BME280;44411;49.994;8.660;2022-11-23T12:12:20;98648.28;;;14.17;50.21
58644;BME280;44411;49.994;8.660;2022-11-23T12:14:46;98644.66;;;14.73;50.46
58644;BME280;44411;49.994;8.660;2022-11-23T12:17:50;98645.44;;;13.86;49.46
58644;BME280;44411;49.994;8.660;2022-11-23T12:20:29;98641.03;;;14.25;48.84
58644;BME280;44411;49.994;8.660;2022-11-23T12:28:26;98633.47;;;14.50;48.62
58644;BME280;44411;49.994;8.660;2022-11-23T12:38:55;98630.84;;;15.02;47.35
58644;BME280;44411;49.994;8.660;2022-11-23T12:41:55;98630.31;;;15.31;48.65
58644;BME280;44411;49.994;8.660;2022-11-23T12:50:12;98609.56;;;16.08;45.23
58644;BME280;44411;49.994;8.660;2022-11-23T12:58:29;98614.97;;;15.66;45.43
58644;BME280;44411;49.994;8.660;2022-11-23T13:14:42;98613.75;;;14.92;42.54
58644;BME280;44411;49.994;8.660;2022-11-23T13:22:39;98601.97;;;14.76;42.39
58644;BME280;44411;49.994;8.660;2022-11-23T13:27:54;98596.09;;;13.86;42.65
58644;BME280;44411;49.994;8.660;2022-11-23T13:30:30;98607.00;;;14.26;42.79
58644;BME280;44411;49.994;8.660;2022-11-23T13:40:43;98606.06;;;15.33;43.72
58644;BME280;44411;49.994;8.660;2022-11-23T13:43:19;98600.56;;;15.33;41.53
58644;BME280;44411;49.994;8.660;2022-11-23T13:46:08;98593.03;;;14.63;41.44
58644;BME280;44411;49.994;8.660;2022-11-23T13:48:45;98577.25;;;14.28;41.67
58644;BME280;44411;49.994;8.660;2022-11-23T13:51:11;98583.63;;;14.48;41.53
58644;BME280;44411;49.994;8.660;2022-11-23T13:53:41;98576.72;;;14.23;41.03
58644;BME280;44411;49.994;8.660;2022-11-23T13:56:23;98570.75;;;14.20;41.74
58644;BME280;44411;49.994;8.660;2022-11-23T13:58:59;98571.41;;;14.46;42.11
58644;BME280;44411;49.994;8.660;2022-11-23T14:02:21;98562.19;;;14.86;42.08
58644;BME280;44411;49.994;8.660;2022-11-23T14:04:47;98548.34;;;14.98;42.30
58644;BME280;44411;49.994;8.660;2022-11-23T14:07:22;98540.81;;;15.50;41.04
58644;BME280;44411;49.994;8.660;2022-11-23T14:12:22;98552.91;;;14.58;41.11
58644;BME280;44411;49.994;8.660;2022-11-23T14:14:59;98548.78;;;14.65;42.48
58644;BME280;44411;49.994;8.660;2022-11-23T14:25:28;98543.16;;;14.77;42.27
58644;BME280;44411;49.994;8.660;2022-11-23T14:31:03;98531.56;;;15.58;42.29
58644;BME280;44411;49.994;8.660;2022-11-23T14:33:53;98532.13;;;15.48;41.61
58644;BME280;44411;49.994;8.660;2022-11-23T14:41:59;98523.91;;;14.57;42.29
58644;BME280;44411;49.994;8.660;2022-11-23T14:44:27;98532.09;;;14.42;41.40
58644;BME280;44411;49.994;8.660;2022-11-23T14:47:05;98530.78;;;14.19;42.00
58644;BME280;44411;49.994;8.660;2022-11-23T14:49:30;98518.69;;;13.76;42.69
58644;BME280;44411;49.994;8.660;2022-11-23T14:51:56;98529.13;;;13.42;43.46
58644;BME280;44411;49.994;8.660;2022-11-23T14:54:22;98515.69;;;13.25;43.00
58644;BME280;44411;49.994;8.660;2022-11-23T14:56:51;98517.47;;;12.80;45.63
58644;BME280;44411;49.994;8.660;2022-11-23T14:59:26;98521.59;;;12.62;45.21
58644;BME280;44411;49.994;8.660;2022-11-23T15:01:59;98519.13;;;12.44;45.42
58644;BME280;44411;49.994;8.660;2022-11-23T15:04:35;98536.06;;;12.25;46.00
58644;BME280;44411;49.994;8.660;2022-11-23T15:07:15;98526.91;;;11.97;47.37
58644;BME280;44411;49.994;8.660;2022-11-23T15:12:19;98536.53;;;11.82;46.88
58644;BME280;44411;49.994;8.660;2022-11-23T15:14:45;98532.38;;;11.63;47.39
58644;BME280;44411;49.994;8.660;2022-11-23T15:17:18;98536.72;;;11.43;48.98
58644;BME280;44411;49.994;8.660;2022-11-23T15:19:58;98531.34;;;11.34;48.66
58644;BME280;44411;49.994;8.660;2022-11-23T15:22:24;98535.00;;;11.18;48.65
58644;BME280;44411;49.994;8.660;2022-11-23T15:24:51;98536.13;;;10.95;49.73
58644;BME280;44411;49.994;8.660;2022-11-23T15:27:25;98547.25;;;10.90;49.47
58644;BME280;44411;49.994;8.660;2022-11-23T15:29:57;98551.69;;;10.74;49.90
58644;BME280;44411;49.994;8.660;2022-11-23T15:32:28;98540.72;;;10.53;50.52
58644;BME280;44411;49.994;8.660;2022-11-23T15:34:56;98552.94;;;10.47;51.57
58644;BME280;44411;49.994;8.660;2022-11-23T15:37:22;98547.84;;;10.36;51.73
58644;BME280;44411;49.994;8.660;2022-11-23T15:39:50;98546.91;;;10.32;51.05
58644;BME280;44411;49.994;8.660;2022-11-23T15:42:17;98550.78;;;10.23;54.03
58644;BME280;44411;49.994;8.660;2022-11-23T15:44:44;98551.75;;;10.18;52.24
58644;BME280;44411;49.994;8.660;2022-11-23T15:47:15;98548.56;;;10.07;54.22
58644;BME280;44411;49.994;8.660;2022-11-23T15:49:43;98551.13;;;10.04;53.72
58644;BME280;44411;49.994;8.660;2022-11-23T15:52:17;98549.41;;;9.99;54.24
58644;BME280;44411;49.994;8.660;2022-11-23T15:54:44;98529.75;;;9.76;53.99
58644;BME280;44411;49.994;8.660;2022-11-23T15:57:15;98538.22;;;9.83;55.60
58644;BME280;44411;49.994;8.660;2022-11-23T15:59:48;98551.03;;;9.83;56.36
58644;BME280;44411;49.994;8.660;2022-11-23T16:02:21;98528.63;;;9.68;57.02
58644;BME280;44411;49.994;8.660;2022-11-23T16:04:47;98552.16;;;9.90;57.12
58644;BME280;44411;49.994;8.660;2022-11-23T16:09:46;98552.44;;;9.97;57.26
58644;BME280;44411;49.994;8.660;2022-11-23T16:12:24;98549.56;;;10.03;56.96
58644;BME280;44411;49.994;8.660;2022-11-23T16:14:51;98539.56;;;10.15;56.01
58644;BME280;44411;49.994;8.660;2022-11-23T16:19:53;98558.28;;;10.26;56.16
58644;BME280;44411;49.994;8.660;2022-11-23T16:22:39;98552.38;;;10.15;56.64
58644;BME280;44411;49.994;8.660;2022-11-23T16:25:18;98564.72;;;10.21;56.77
58644;BME280;44411;49.994;8.660;2022-11-23T16:28:03;98562.31;;;10.19;57.98
58644;BME280;44411;49.994;8.660;2022-11-23T16:30:43;98565.34;;;10.35;56.55
58644;BME280;44411;49.994;8.660;2022-11-23T16:33:14;98565.50;;;10.30;56.72
58644;BME280;44411;49.994;8.660;2022-11-23T16:35:39;98577.03;;;10.27;58.03
58644;BME280;44411;49.994;8.660;2022-11-23T16:38:05;98575.63;;;10.21;57.86
58644;BME280;44411;49.994;8.660;2022-11-23T16:40:31;98577.69;;;10.33;57.15
58644;BME280;44411;49.994;8.660;2022-11-23T16:42:56;98593.53;;;10.40;57.14
58644;BME280;44411;49.994;8.660;2022-11-23T16:45:22;98595.19;;;10.14;58.04
58644;BME280;44411;49.994;8.660;2022-11-23T16:48:00;98605.59;;;10.21;57.61
58644;BME280;44411;49.994;8.660;2022-11-23T16:50:32;98599.66;;;10.28;57.66
58644;BME280;44411;49.994;8.660;2022-11-23T16:53:11;98602.53;;;10.31;56.97
58644;BME280;44411;49.994;8.660;2022-11-23T16:55:38;98609.72;;;10.45;56.69
58644;BME280;44411;49.994;8.660;2022-11-23T16:58:03;98613.94;;;10.33;57.08
58644;BME280;44411;49.994;8.660;2022-11-23T17:00:29;98615.97;;;10.45;56.77
58644;BME280;44411;49.994;8.660;2022-11-23T17:02:56;98608.94;;;10.27;57.18
58644;BME280;44411;49.994;8.660;2022-11-23T17:05:22;98618.56;;;10.33;57.41
58644;BME280;44411;49.994;8.660;2022-11-23T17:07:48;98625.63;;;10.43;57.13
58644;BME280;44411;49.994;8.660;2022-11-23T17:10:14;98625.59;;;10.51;56.86
58644;BME280;44411;49.994;8.660;2022-11-23T17:12:51;98622.06;;;10.51;55.95
58644;BME280;44411;49.994;8.660;2022-11-23T17:15:19;98636.69;;;10.37;56.99
58644;BME280;44411;49.994;8.660;2022-11-23T17:17:44;98624.03;;;10.33;56.53
58644;BME280;44411;49.994;8.660;2022-11-23T17:20:14;98650.63;;;10.53;56.31
58644;BME280;44411;49.994;8.660;2022-11-23T17:22:40;98658.28;;;10.60;56.08
58644;BME280;44411;49.994;8.660;2022-11-23T17:25:07;98654.94;;;10.46;56.34
58644;BME280;44411;49.994;8.660;2022-11-23T17:27:34;98653.06;;;10.37;57.88
58644;BME280;44411;49.994;8.660;2022-11-23T17:30:01;98660.56;;;10.49;57.04
58644;BME280;44411;49.994;8.660;2022-11-23T17:32:28;98678.06;;;10.40;57.23
58644;BME280;44411;49.994;8.660;2022-11-23T17:34:53;98683.06;;;10.37;57.48
58644;BME280;44411;49.994;8.660;2022-11-23T17:37:21;98687.06;;;10.14;59.26
58644;BME280;44411;49.994;8.660;2022-11-23T17:39:48;98703.09;;;9.89;61.13
58644;BME280;44411;49.994;8.660;2022-11-23T17:42:14;98706.78;;;9.85;62.24
58644;BME280;44411;49.994;8.660;2022-11-23T17:44:40;98722.34;;;9.84;64.70
58644;BME280;44411;49.994;8.660;2022-11-23T17:47:06;98723.75;;;9.55;65.48
58644;BME280;44411;49.994;8.660;2022-11-23T17:49:39;98733.69;;;9.69;65.66
58644;BME280;44411;49.994;8.660;2022-11-23T17:52:04;98733.38;;;9.04;69.20
58644;BME280;44411;49.994;8.660;2022-11-23T17:54:30;98729.84;;;9.12;69.02
58644;BME280;44411;49.994;8.660;2022-11-23T17:56:55;98738.13;;;8.98;72.08
58644;BME280;44411;49.994;8.660;2022-11-23T17:59:21;98758.00;;;8.76;71.60
58644;BME280;44411;49.994;8.660;2022-11-23T18:01:47;98758.56;;;8.87;71.71
58644;BME280;44411;49.994;8.660;2022-11-23T18:04:13;98753.59;;;8.89;70.86
58644;BME280;44411;49.994;8.660;2022-11-23T18:06:38;98762.34;;;8.77;72.41
58644;BME280;44411;49.994;8.660;2022-11-23T18:09:03;98767.50;;;8.88;72.53
58644;BME280;44411;49.994;8.660;2022-11-23T18:11:29;98773.22;;;8.77;72.05
58644;BME280;44411;49.994;8.660;2022-11-23T18:13:54;98765.13;;;8.63;74.29
58644;BME280;44411;49.994;8.660;2022-11-23T18:16:21;98769.38;;;8.78;72.88
58644;BME280;44411;49.994;8.660;2022-11-23T18:18:48;98790.16;;;8.74;74.21
58644;BME280;44411;49.994;8.660;2022-11-23T18:21:13;98786.44;;;8.48;76.32
58644;BME280;44411;49.994;8.660;2022-11-23T18:23:40;98791.63;;;8.35;76.59
58644;BME280;44411;49.994;8.660;2022-11-23T18:26:23;98795.63;;;8.52;75.60
58644;BME280;44411;49.994;8.660;2022-11-23T18:28:53;98803.09;;;8.32;77.84
58644;BME280;44411;49.994;8.660;2022-11-23T18:31:19;98802.50;;;8.35;77.36
58644;BME280;44411;49.994;8.660;2022-11-23T18:33:44;98800.28;;;8.60;75.88
58644;BME280;44411;49.994;8.660;2022-11-23T18:36:11;98812.41;;;8.54;77.90
58644;BME280;44411;49.994;8.660;2022-11-23T18:38:38;98780.59;;;11.74;64.79
58644;BME280;44411;49.994;8.660;2022-11-23T18:41:04;98792.56;;;10.05;70.91
58644;BME280;44411;49.994;8.660;2022-11-23T18:43:29;98796.72;;;9.93;70.67
58644;BME280;44411;49.994;8.660;2022-11-23T18:45:55;98799.84;;;9.60;72.72
58644;BME280;44411;49.994;8.660;2022-11-23T18:48:21;98799.88;;;9.29;81.74
58644;BME280;44411;49.994;8.660;2022-11-23T18:50:46;98810.75;;;9.29;82.79
58644;BME280;44411;49.994;8.660;2022-11-23T18:53:11;98805.78;;;9.22;82.86
58644;BME280;44411;49.994;8.660;2022-11-23T18:55:36;98807.78;;;9.39;83.55
58644;BME280;44411;49.994;8.660;2022-11-23T18:58:02;98811.75;;;9.33;82.77
58644;BME280;44411;49.994;8.660;2022-11-23T19:00:27;98815.63;;;9.41;81.83
58644;BME280;44411;49.994;8.660;2022-11-23T19:02:54;98806.63;;;9.32;78.32
58644;BME280;44411;49.994;8.660;2022-11-23T19:05:20;98828.09;;;9.33;77.63
58644;BME280;44411;49.994;8.660;2022-11-23T19:07:46;98818.81;;;9.03;77.77
58644;BME280;44411;49.994;8.660;2022-11-23T19:10:12;98825.28;;;9.16;79.10
58644;BME280;44411;49.994;8.660;2022-11-23T19:12:37;98829.28;;;9.18;78.86
58644;BME280;44411;49.994;8.660;2022-11-23T19:15:03;98836.09;;;9.07;77.60
58644;BME280;44411;49.994;8.660;2022-11-23T19:17:30;98819.91;;;9.02;78.55
58644;BME280;44411;49.994;8.660;2022-11-23T19:19:56;98826.53;;;9.10;78.99
58644;BME280;44411;49.994;8.660;2022-11-23T19:22:21;98832.53;;;8.98;80.17
58644;BME280;44411;49.994;8.660;2022-11-23T19:24:46;98845.09;;;8.85;80.97
58644;BME280;44411;49.994;8.660;2022-11-23T19:27:12;98856.41;;;8.56;80.91
58644;BME280;44411;49.994;8.660;2022-11-23T19:29:37;98865.94;;;8.67;80.70
58644;BME280;44411;49.994;8.660;2022-11-23T19:32:03;98843.69;;;8.65;80.03
58644;BME280;44411;49.994;8.660;2022-11-23T19:34:28;98869.75;;;8.89;83.36
58644;BME280;44411;49.994;8.660;2022-11-23T19:36:53;98872.66;;;8.92;86.51
58644;BME280;44411;49.994;8.660;2022-11-23T19:39:19;98881.44;;;8.89;85.01
58644;BME280;44411;49.994;8.660;2022-11-23T19:41:44;98873.09;;;8.86;84.71
58644;BME280;44411;49.994;8.660;2022-11-23T19:44:11;98866.50;;;9.00;80.03
58644;BME280;44411;49.994;8.660;2022-11-23T19:46:36;98872.97;;;9.13;79.30
58644;BME280;44411;49.994;8.660;2022-11-23T19:49:01;98871.72;;;9.19;79.25
58644;BME280;44411;49.994;8.660;2022-11-23T19:51:28;98874.03;;;9.03;78.88
58644;BME280;44411;49.994;8.660;2022-11-23T19:53:54;98888.28;;;9.09;78.76
58644;BME280;44411;49.994;8.660;2022-11-23T19:56:26;98894.38;;;9.06;78.91
58644;BME280;44411;49.994;8.660;2022-11-23T19:58:59;98888.34;;;9.18;78.72
58644;BME280;44411;49.994;8.660;2022-11-23T20:01:30;98904.38;;;9.19;78.40
58644;BME280;44411;49.994;8.660;2022-11-23T20:03:58;98915.69;;;9.35;78.25
58644;BME280;44411;49.994;8.660;2022-11-23T20:06:28;98915.88;;;8.94;79.03
58644;BME280;44411;49.994;8.660;2022-11-23T20:09:01;98922.44;;;9.15;78.35